Terminal Aerodrome Forecast
Issued by NWS

Home | Current Version | Previous Version | Text Only | Print | Product List | Glossary On
Versions: 1 2 3 4 5 6 7 8 9 10 11 12 13
000
FTUS43 KGLD 251727
TAFMCK
TAF
KMCK 251727Z 2518/2618 15007KT P6SM FEW200
     FM251900 06006KT P6SM FEW200
     FM252200 04008KT P6SM VCTS SCT070CB BKN200
      TEMPO 2522/2602 6SM -SHRA BKN070
     FM260400 01010KT P6SM BKN110
     FM261700 04008KT P6SM FEW200=

USA.gov is the U.S. government's official web portal to all federal, state and local government web resources and services.